Time;durP1;ratioP1;P1;durP2;ratioP2;P2;SDS_P1;SDS_P2;PMS_P1;PMS_P2;Temp;Humidity;BMP_temperature;BMP_pressure;BME280_temperature;BME280_humidity;BME280_pressure;Samples;Min_cycle;Max_cycle;Signal;HPM_P1;HPM_P2
2022/11/18 00:00:25;;;;;;;0.47;0.30;;;;;;;5.24;92.47;101156.72;5098529;28;20403;-63
2022/11/18 00:02:50;;;;;;;1.85;0.30;;;;;;;5.34;92.55;101170.78;5109310;28;20056;-62
2022/11/18 00:05:15;;;;;;;0.40;0.30;;;;;;;5.25;91.78;101139.69;5104454;28;20059;-63
2022/11/18 00:07:41;;;;;;;0.95;0.30;;;;;;;5.02;93.66;101161.53;5102132;28;20043;-62
2022/11/18 00:10:06;;;;;;;3.85;0.28;;;;;;;5.07;94.39;101172.59;5111694;28;20024;-63
2022/11/18 00:15:15;;;;;;;0.40;0.30;;;;;;;5.44;91.72;101176.88;5105662;28;20588;-63
2022/11/18 00:17:41;;;;;;;0.98;0.28;;;;;;;5.41;91.97;101185.19;5089433;28;20081;-63
2022/11/18 00:20:06;;;;;;;0.45;0.30;;;;;;;5.31;92.86;101176.44;5098447;28;20028;-63
2022/11/18 00:22:32;;;;;;;0.40;0.30;;;;;;;5.35;92.28;101169.78;5092828;28;20509;-63
2022/11/18 00:24:57;;;;;;;0.65;0.40;;;;;;;5.46;92.22;101177.53;5101704;28;20027;-63
2022/11/18 00:27:23;;;;;;;0.50;0.20;;;;;;;5.23;91.94;101169.22;5086372;28;20050;-63
2022/11/18 00:29:48;;;;;;;0.40;0.30;;;;;;;5.10;93.08;101179.41;5090406;28;20035;-62
2022/11/18 00:32:13;;;;;;;0.85;0.40;;;;;;;5.25;92.66;101179.72;5079350;28;20032;-62
2022/11/18 00:34:41;;;;;;;3.10;0.55;;;;;;;5.34;91.56;101176.13;5110426;28;20043;-62
2022/11/18 00:37:06;;;;;;;1.10;0.20;;;;;;;5.40;91.45;101178.19;5102582;28;20031;-63
2022/11/18 00:39:32;;;;;;;0.60;0.40;;;;;;;5.29;91.48;101170.41;5084437;28;20505;-63
2022/11/18 00:44:41;;;;;;;0.77;0.30;;;;;;;5.25;91.20;101177.06;5083069;28;20023;-62
2022/11/18 00:47:06;;;;;;;0.63;0.40;;;;;;;5.37;91.02;101178.50;5106525;28;20115;-62
2022/11/18 00:49:32;;;;;;;1.17;0.38;;;;;;;5.23;90.59;101179.88;5105798;28;20102;-63
2022/11/18 00:51:57;;;;;;;1.30;0.40;;;;;;;5.41;89.37;101178.00;5099250;28;20051;-62
2022/11/18 00:54:23;;;;;;;0.77;0.38;;;;;;;5.37;90.32;101189.16;5092479;28;20020;-62
2022/11/18 00:56:48;;;;;;;0.45;0.20;;;;;;;5.27;90.52;101186.59;5081405;28;20073;-62
2022/11/18 00:59:14;;;;;;;0.60;0.20;;;;;;;5.16;90.18;101187.66;5105216;28;20055;-62
2022/11/18 01:01:39;;;;;;;0.68;0.40;;;;;;;5.13;90.11;101182.66;5088261;28;20039;-63
2022/11/18 01:04:04;;;;;;;0.88;0.38;;;;;;;5.32;88.01;101181.59;5097740;28;20056;-62
2022/11/18 01:06:30;;;;;;;0.28;0.20;;;;;;;5.24;87.21;101162.88;5110999;28;20504;-64
2022/11/18 01:08:55;;;;;;;1.02;0.20;;;;;;;5.21;88.06;101181.03;5100347;28;20053;-62
2022/11/18 01:14:05;;;;;;;0.38;0.25;;;;;;;5.46;86.30;101200.72;5110135;28;20581;-62
2022/11/18 01:16:30;;;;;;;0.55;0.30;;;;;;;5.41;85.91;101190.53;5078840;28;20110;-62
2022/11/18 01:18:56;;;;;;;1.27;0.30;;;;;;;5.40;85.15;101188.84;5107366;28;20111;-62
2022/11/18 01:21:21;;;;;;;0.63;0.30;;;;;;;5.13;86.59;101204.00;5084393;28;20043;-62
2022/11/18 01:23:47;;;;;;;0.55;0.20;;;;;;;5.09;85.92;101197.25;5100160;28;20028;-62
2022/11/18 01:26:15;;;;;;;0.50;0.30;;;;;;;5.19;86.16;101198.00;5110567;28;20039;-62
2022/11/18 01:28:40;;;;;;;0.60;0.20;;;;;;;5.03;87.29;101200.53;5098041;28;20027;-62
2022/11/18 01:31:12;;;;;;;0.68;0.20;;;;;;;5.27;85.86;101202.59;5105720;28;20115;-63
2022/11/18 01:33:37;;;;;;;0.43;0.30;;;;;;;4.97;86.74;101193.16;5105313;28;20092;-62
2022/11/18 01:36:03;;;;;;;1.10;0.25;;;;;;;4.92;86.72;101158.13;5079672;28;20040;-62
2022/11/18 01:38:28;;;;;;;0.82;0.30;;;;;;;5.08;87.13;101203.59;5091800;28;20031;-62
2022/11/18 01:40:54;;;;;;;1.08;0.30;;;;;;;5.17;86.49;101210.69;5099285;28;20027;-62
2022/11/18 01:43:21;;;;;;;0.63;0.30;;;;;;;5.15;86.52;101210.00;5103587;28;20028;-62
2022/11/18 01:45:49;;;;;;;0.93;0.32;;;;;;;5.25;85.53;101209.06;5106747;28;20110;-62
2022/11/18 01:48:23;;;;;;;1.85;0.30;;;;;;;4.94;87.40;101204.97;5096398;28;20558;-62
2022/11/18 01:50:55;;;;;;;0.17;0.13;;;;;;;5.05;86.28;101189.72;5107764;28;20032;-62
2022/11/18 01:53:24;;;;;;;0.60;0.25;;;;;;;5.07;86.55;101201.09;5102715;28;20028;-62
2022/11/18 01:55:52;;;;;;;0.17;0.17;;;;;;;5.29;85.49;101213.09;5099655;28;20111;-62
2022/11/18 01:58:25;;;;;;;0.40;0.20;;;;;;;5.10;85.71;101214.97;5109625;28;20035;-62
2022/11/18 02:00:51;;;;;;;0.50;0.20;;;;;;;4.96;86.00;101199.47;5080282;28;20071;-62
2022/11/18 02:03:17;;;;;;;0.35;0.20;;;;;;;5.04;86.21;101207.56;5103426;28;20048;-62
2022/11/18 02:05:46;;;;;;;1.13;0.30;;;;;;;4.90;86.60;101192.09;5105743;28;20035;-62
2022/11/18 02:08:13;;;;;;;1.30;0.30;;;;;;;4.97;86.19;101203.84;5096155;28;20040;-62
2022/11/18 02:10:38;;;;;;;0.50;0.30;;;;;;;5.06;85.92;101221.56;5090698;28;20020;-62
2022/11/18 02:13:04;;;;;;;0.50;0.20;;;;;;;5.14;85.07;101212.81;5081768;28;20038;-62
2022/11/18 02:16:01;;;;;;;0.20;0.20;;;;;;;5.46;83.82;101204.22;5101191;28;20036;-62
2022/11/18 02:18:42;;;;;;;0.50;0.20;;;;;;;5.23;84.08;101208.38;5083432;28;20063;-62
2022/11/18 02:21:30;;;;;;;1.23;0.38;;;;;;;5.42;83.58;101213.53;5104764;28;20028;-62
2022/11/18 02:24:16;;;;;;;0.80;0.17;;;;;;;5.17;84.39;101204.50;5052209;28;20104;-62
2022/11/18 02:26:50;;;;;;;0.43;0.30;;;;;;;5.25;83.84;101207.22;5079842;28;20406;-62
2022/11/18 02:29:42;;;;;;;0.25;0.20;;;;;;;5.18;84.08;101203.50;5103384;28;20406;-62
2022/11/18 02:32:11;;;;;;;0.40;0.30;;;;;;;4.92;86.09;101214.94;5090269;28;20039;-62
2022/11/18 02:35:01;;;;;;;1.10;0.20;;;;;;;4.86;86.98;101206.72;5078767;28;20020;-62
2022/11/18 02:37:48;;;;;;;0.50;0.20;;;;;;;4.39;87.27;101145.63;5102008;28;20035;-62
2022/11/18 02:40:37;;;;;;;0.50;0.20;;;;;;;4.76;88.32;101200.63;5049441;28;20105;-62
2022/11/18 02:43:12;;;;;;;0.47;0.28;;;;;;;4.94;87.13;101212.16;5049576;28;20147;-62
2022/11/18 02:45:42;;;;;;;0.40;0.30;;;;;;;4.90;87.72;101208.94;5032768;28;20122;-62
2022/11/18 02:48:15;;;;;;;0.57;0.30;;;;;;;5.00;86.71;101210.66;5049317;28;20036;-63
2022/11/18 02:50:43;;;;;;;1.38;0.20;;;;;;;4.95;87.50;101203.13;5031135;28;20032;-62
2022/11/18 02:53:11;;;;;;;0.57;0.28;;;;;;;5.09;86.30;101207.94;5027745;28;20421;-62
2022/11/18 02:55:39;;;;;;;0.55;0.30;;;;;;;4.76;88.07;101201.44;5040842;28;20041;-62
2022/11/18 02:58:05;;;;;;;0.73;0.25;;;;;;;4.59;89.14;101200.44;5049325;28;20045;-62
2022/11/18 03:00:32;;;;;;;0.60;0.30;;;;;;;4.33;90.75;101178.19;5032831;28;20462;-62
2022/11/18 03:02:57;;;;;;;0.55;0.30;;;;;;;4.77;89.04;101213.81;5048909;28;20102;-63
2022/11/18 03:05:41;;;;;;;1.95;0.28;;;;;;;4.62;89.64;101220.66;5049289;28;20045;-62
2022/11/18 03:08:12;;;;;;;0.60;0.38;;;;;;;4.47;88.95;101189.19;5049078;28;20039;-62
2022/11/18 03:11:03;;;;;;;0.38;0.22;;;;;;;4.81;88.18;101222.34;5062232;28;20142;-62
2022/11/18 03:13:41;;;;;;;0.43;0.10;;;;;;;4.95;86.81;101219.16;5100887;28;20386;-62
2022/11/18 03:16:15;;;;;;;0.85;0.30;;;;;;;4.62;88.92;101232.13;5107620;28;20042;-62
2022/11/18 03:19:13;;;;;;;1.00;0.40;;;;;;;4.85;87.78;101227.22;5078977;28;20023;-62
2022/11/18 03:21:44;;;;;;;0.20;0.20;;;;;;;4.78;87.86;101226.16;5057009;28;20459;-62
2022/11/18 03:24:28;;;;;;;1.02;0.25;;;;;;;4.60;87.84;101239.47;5064844;28;20107;-63
2022/11/18 03:27:06;;;;;;;0.40;0.25;;;;;;;4.52;89.14;101230.53;5039601;28;20036;-62
2022/11/18 03:29:40;;;;;;;0.93;0.85;;;;;;;4.52;89.14;101235.84;5041278;28;20063;-62
2022/11/18 03:32:23;;;;;;;0.57;0.22;;;;;;;4.65;87.56;101215.84;5047498;28;20072;-64
2022/11/18 03:34:54;;;;;;;1.30;0.30;;;;;;;4.60;88.22;101236.78;5038614;28;20111;-64
2022/11/18 03:37:23;;;;;;;1.50;0.40;;;;;;;4.74;87.84;101234.59;5042795;28;20037;-62
2022/11/18 03:39:53;;;;;;;0.70;0.35;;;;;;;4.66;88.50;101233.50;5061913;28;20043;-62
2022/11/18 03:42:26;;;;;;;0.82;0.35;;;;;;;4.75;88.14;101241.59;5051812;28;20037;-62
2022/11/18 03:44:59;;;;;;;0.70;0.30;;;;;;;4.69;87.49;101251.88;5046757;28;20456;-62
2022/11/18 03:47:32;;;;;;;0.60;0.30;;;;;;;4.90;86.94;101248.06;5041905;28;20525;-64
2022/11/18 03:50:03;;;;;;;1.33;0.50;;;;;;;4.68;88.05;101252.88;5054181;28;20044;-62
2022/11/18 03:52:33;;;;;;;0.90;0.57;;;;;;;4.69;88.05;101257.19;5068245;28;20507;-64
2022/11/18 03:55:04;;;;;;;0.85;0.50;;;;;;;4.81;88.47;101257.84;5097315;28;20023;-65
2022/11/18 03:57:38;;;;;;;0.57;0.40;;;;;;;4.89;87.28;101257.06;5082342;28;20028;-64
2022/11/18 04:00:09;;;;;;;0.93;0.50;;;;;;;4.75;88.79;101262.94;5106542;28;20035;-62
2022/11/18 04:02:39;;;;;;;0.70;0.50;;;;;;;4.76;87.06;101222.78;5094071;28;20135;-62
2022/11/18 04:05:13;;;;;;;0.75;0.60;;;;;;;5.02;86.96;101259.38;5104076;28;20028;-62
2022/11/18 04:07:57;;;;;;;;;;;;;;;4.79;87.98;101264.31;5103418;28;20127;-62
2022/11/18 04:10:36;;;;;;;0.77;0.50;;;;;;;4.89;87.11;101265.91;5094347;28;19994;-62
2022/11/18 04:13:11;;;;;;;0.70;0.32;;;;;;;4.69;87.55;101275.84;5104533;28;20546;-62
2022/11/18 04:15:38;;;;;;;0.50;0.50;;;;;;;4.56;88.39;101263.88;5102355;28;20084;-63
2022/11/18 04:18:04;;;;;;;2.47;0.60;;;;;;;4.69;87.37;101275.84;5060965;28;20486;-62
2022/11/18 04:20:31;;;;;;;0.60;0.40;;;;;;;4.59;88.75;101275.06;5072389;28;20035;-62
2022/11/18 04:22:56;;;;;;;1.00;0.52;;;;;;;4.70;86.97;101282.03;5078490;28;20027;-62
2022/11/18 04:25:23;;;;;;;0.40;0.38;;;;;;;4.64;87.39;101295.97;5083138;28;20028;-62
2022/11/18 04:27:49;;;;;;;0.73;0.60;;;;;;;4.58;87.36;101286.72;5103978;28;20489;-62
2022/11/18 04:30:15;;;;;;;1.00;0.68;;;;;;;4.71;87.30;101287.22;5094083;28;20063;-62
2022/11/18 04:32:40;;;;;;;1.33;0.85;;;;;;;4.82;86.44;101307.50;5111263;28;20110;-62
2022/11/18 04:35:06;;;;;;;1.27;0.73;;;;;;;4.66;86.48;101301.97;5085521;28;20040;-62
2022/11/18 04:37:31;;;;;;;1.20;0.57;;;;;;;4.77;85.83;101298.25;5101562;28;20023;-62
2022/11/18 04:39:56;;;;;;;1.38;0.70;;;;;;;4.69;86.01;101297.19;5081898;28;20040;-62
2022/11/18 04:42:22;;;;;;;0.65;0.65;;;;;;;4.72;85.70;101314.72;5092917;28;20038;-64
2022/11/18 04:44:47;;;;;;;2.88;0.65;;;;;;;4.88;85.16;101314.91;5080725;28;20057;-62
2022/11/18 04:47:13;;;;;;;1.52;0.75;;;;;;;4.66;85.48;101296.66;5106424;28;20042;-62
2022/11/18 04:49:38;;;;;;;2.95;1.00;;;;;;;4.75;85.08;101317.09;5105881;28;20035;-62
2022/11/18 04:52:04;;;;;;;3.10;1.10;;;;;;;4.45;84.72;101252.44;5099247;28;20486;-62
2022/11/18 04:54:30;;;;;;;3.05;0.90;;;;;;;4.92;83.96;101326.94;5092510;28;20076;-62
2022/11/18 04:56:55;;;;;;;3.28;1.20;;;;;;;4.62;85.15;101319.25;5099582;28;20040;-62
2022/11/18 04:59:23;;;;;;;3.13;1.00;;;;;;;4.61;85.75;101325.59;5105288;28;20565;-62
2022/11/18 05:01:49;;;;;;;1.75;0.80;;;;;;;4.70;85.68;101328.22;5107144;28;20039;-62
2022/11/18 05:04:18;;;;;;;2.28;0.80;;;;;;;4.57;86.62;101333.03;5079345;28;20034;-62
2022/11/18 05:06:44;;;;;;;1.15;0.70;;;;;;;4.47;86.62;101330.41;5081712;28;20090;-62
2022/11/18 05:09:10;;;;;;;1.20;0.70;;;;;;;4.62;85.85;101333.41;5107273;28;20063;-62
2022/11/18 05:14:19;;;;;;;1.30;0.60;;;;;;;4.58;85.93;101337.38;5082280;28;20107;-62
2022/11/18 05:16:44;;;;;;;2.15;0.80;;;;;;;4.35;85.58;101296.09;5092076;28;20111;-63
2022/11/18 05:19:10;;;;;;;1.42;0.70;;;;;;;4.70;84.50;101352.19;5101447;28;20037;-62
2022/11/18 05:21:36;;;;;;;2.15;0.60;;;;;;;4.48;85.83;101360.56;5102766;28;20044;-62
2022/11/18 05:24:02;;;;;;;1.38;0.50;;;;;;;4.42;86.13;101369.13;5108258;28;20042;-62
2022/11/18 05:26:28;;;;;;;1.08;0.70;;;;;;;4.54;86.10;101357.31;5096880;28;20035;-62
2022/11/18 05:28:54;;;;;;;1.13;0.70;;;;;;;4.56;85.89;101360.66;5090397;28;20445;-62
2022/11/18 05:31:19;;;;;;;1.70;0.70;;;;;;;4.64;85.14;101371.44;5102178;28;20443;-62
2022/11/18 05:33:45;;;;;;;0.80;0.50;;;;;;;4.83;83.86;101372.31;5101154;28;20059;-62
2022/11/18 05:36:13;;;;;;;1.27;0.80;;;;;;;4.84;83.98;101379.34;5091058;28;20031;-62
2022/11/18 05:38:39;;;;;;;0.98;0.80;;;;;;;4.61;85.45;101386.88;5096612;28;20077;-62
2022/11/18 05:41:05;;;;;;;1.50;0.60;;;;;;;4.58;84.81;101388.00;5088711;28;20035;-62
2022/11/18 05:43:31;;;;;;;1.80;0.82;;;;;;;4.50;86.06;101385.22;5103764;28;20023;-62
2022/11/18 05:45:57;;;;;;;1.95;0.80;;;;;;;4.69;84.25;101385.16;5081068;28;20039;-63
2022/11/18 05:48:23;;;;;;;1.80;0.80;;;;;;;4.44;84.43;101362.69;5091623;28;20402;-62
2022/11/18 05:50:50;;;;;;;2.42;1.20;;;;;;;4.35;85.70;101394.69;5096501;28;20035;-62
2022/11/18 05:53:18;;;;;;;3.05;1.20;;;;;;;4.37;85.95;101396.22;5104863;28;20036;-62
2022/11/18 05:55:48;;;;;;;3.58;1.40;;;;;;;4.35;85.60;101395.50;5104980;28;20494;-62
2022/11/18 05:58:14;;;;;;;2.92;1.60;;;;;;;4.52;85.55;101401.91;5078725;28;20032;-62
2022/11/18 06:00:39;;;;;;;4.97;1.45;;;;;;;4.59;84.94;101411.00;5109704;28;20490;-62
2022/11/18 06:03:12;;;;;;;3.80;1.40;;;;;;;4.56;85.03;101411.28;5080825;28;20413;-62
2022/11/18 06:05:38;;;;;;;1.73;0.73;;;;;;;4.39;85.65;101412.06;5101382;28;20032;-62
2022/11/18 06:08:03;;;;;;;2.10;0.90;;;;;;;4.42;85.59;101385.13;5089351;28;20590;-62
2022/11/18 06:10:35;;;;;;;1.38;0.90;;;;;;;4.56;84.75;101408.63;5059396;28;20047;-62
2022/11/18 06:13:06;;;;;;;1.42;0.88;;;;;;;4.47;85.36;101415.69;5088579;28;20054;-62
2022/11/18 06:15:39;;;;;;;1.90;0.70;;;;;;;4.49;85.25;101418.19;5102849;28;20028;-62
2022/11/18 06:18:10;;;;;;;1.08;0.60;;;;;;;4.37;85.70;101417.53;5097477;28;20040;-62
2022/11/18 06:20:39;;;;;;;1.58;0.90;;;;;;;4.45;85.40;101419.47;5109215;28;20031;-62
2022/11/18 06:23:04;;;;;;;3.08;0.90;;;;;;;4.18;86.10;101406.91;5099001;28;20019;-63
2022/11/18 06:25:30;;;;;;;3.28;1.00;;;;;;;4.22;86.21;101400.31;5084507;28;20031;-63
2022/11/18 06:28:00;;;;;;;1.20;0.80;;;;;;;4.37;86.21;101425.53;5106230;28;20067;-64
2022/11/18 06:30:25;;;;;;;2.22;0.90;;;;;;;4.35;86.35;101424.81;5095465;28;20044;-63
2022/11/18 06:32:50;;;;;;;1.23;0.63;;;;;;;4.24;86.23;101433.81;5108103;28;20445;-62
2022/11/18 06:35:16;;;;;;;5.88;1.13;;;;;;;4.02;87.80;101415.47;5082038;28;20031;-63
2022/11/18 06:37:41;;;;;;;4.10;1.10;;;;;;;4.08;87.90;101438.88;5100860;28;20035;-62
2022/11/18 06:40:07;;;;;;;1.48;0.90;;;;;;;4.03;88.41;101429.63;5107426;28;20039;-62
2022/11/18 06:45:17;;;;;;;2.45;0.80;;;;;;;3.95;89.17;101425.00;5104132;28;20081;-63
2022/11/18 06:47:42;;;;;;;2.03;0.98;;;;;;;4.04;89.43;101440.16;5103985;28;20035;-63
2022/11/18 06:50:08;;;;;;;1.17;1.00;;;;;;;3.96;91.21;101437.34;5078966;28;20032;-63
2022/11/18 06:52:33;;;;;;;2.05;1.40;;;;;;;3.91;90.91;101437.78;5090425;28;20040;-63
2022/11/18 06:54:58;;;;;;;2.58;1.10;;;;;;;3.99;91.04;101453.03;5079185;28;20034;-63
2022/11/18 06:57:24;;;;;;;2.60;1.20;;;;;;;3.87;92.09;101449.66;5102895;28;20028;-62
2022/11/18 06:59:49;;;;;;;3.28;1.00;;;;;;;3.82;91.34;101413.81;5104345;28;20432;-62
2022/11/18 07:02:17;;;;;;;1.48;0.80;;;;;;;4.03;91.07;101440.28;5077259;28;20127;-62
2022/11/18 07:04:43;;;;;;;1.50;1.02;;;;;;;3.91;92.37;101456.41;5108334;28;20020;-62
2022/11/18 07:07:09;;;;;;;3.08;0.82;;;;;;;3.90;90.72;101443.22;5080871;28;20062;-63
2022/11/18 07:09:35;;;;;;;3.00;1.17;;;;;;;3.86;92.61;101465.78;5101254;28;20059;-63
2022/11/18 07:12:00;;;;;;;1.83;1.00;;;;;;;3.87;93.18;101467.47;5106011;28;20430;-62
2022/11/18 07:14:26;;;;;;;2.95;1.23;;;;;;;3.85;93.34;101472.09;5076567;28;20042;-62
2022/11/18 07:16:51;;;;;;;2.55;1.20;;;;;;;3.86;93.95;101476.44;5107304;28;20110;-62
2022/11/18 07:19:17;;;;;;;2.97;0.98;;;;;;;3.91;93.05;101479.53;5081305;28;20121;-62
2022/11/18 07:21:42;;;;;;;1.23;1.00;;;;;;;3.83;94.19;101479.38;5081807;28;20043;-62
2022/11/18 07:24:11;;;;;;;2.63;1.23;;;;;;;3.89;93.82;101479.66;5106684;28;20028;-62
2022/11/18 07:26:36;;;;;;;2.28;1.27;;;;;;;3.77;96.21;101486.06;5094859;28;20055;-63
2022/11/18 07:29:02;;;;;;;2.55;1.25;;;;;;;3.86;95.33;101487.09;5087721;28;20062;-62
2022/11/18 07:31:27;;;;;;;1.58;1.00;;;;;;;3.85;95.41;101493.41;5094534;28;20024;-62
2022/11/18 07:33:53;;;;;;;2.75;1.40;;;;;;;3.77;97.22;101491.41;5072760;28;20289;-62
2022/11/18 07:36:21;;;;;;;2.90;1.30;;;;;;;3.88;96.47;101498.44;5090967;28;20035;-62
2022/11/18 07:38:47;;;;;;;3.30;1.52;;;;;;;3.89;95.66;101495.63;5060573;28;20023;-62
2022/11/18 07:41:13;;;;;;;1.95;1.20;;;;;;;3.92;95.71;101486.53;5104070;28;20043;-63
2022/11/18 07:43:40;;;;;;;2.88;1.23;;;;;;;3.90;96.56;101499.13;5102166;28;20153;-63
2022/11/18 07:46:32;;;;;;;1.80;1.20;;;;;;;3.86;97.23;101495.06;5096308;28;20537;-62
2022/11/18 07:49:01;;;;;;;5.68;1.40;;;;;;;3.65;98.67;101468.56;5061148;28;20505;-63
2022/11/18 07:51:29;;;;;;;4.10;1.75;;;;;;;3.87;96.86;101486.94;5102468;28;20045;-63
2022/11/18 07:53:54;;;;;;;2.65;1.42;;;;;;;3.90;97.19;101507.94;5104543;28;20051;-63
2022/11/18 07:56:21;;;;;;;2.22;1.20;;;;;;;3.73;97.64;101484.69;5094725;28;20505;-63
2022/11/18 07:58:46;;;;;;;2.83;1.23;;;;;;;3.83;96.48;101484.69;5107797;28;20444;-63
2022/11/18 08:01:17;;;;;;;1.85;1.27;;;;;;;3.95;97.32;101515.53;5098333;28;20042;-63
2022/11/18 08:03:44;;;;;;;3.40;1.20;;;;;;;3.89;98.16;101508.09;5099460;28;20076;-63
2022/11/18 08:06:11;;;;;;;2.22;1.10;;;;;;;3.86;98.32;101519.03;5088132;28;20023;-64
2022/11/18 08:08:37;;;;;;;1.63;1.00;;;;;;;3.71;98.54;101490.16;5094342;28;20435;-63
2022/11/18 08:11:05;;;;;;;1.85;1.13;;;;;;;3.86;97.99;101487.09;5105532;28;20052;-63
2022/11/18 08:13:32;;;;;;;2.47;1.10;;;;;;;3.94;98.42;101514.72;5102390;28;20104;-62
2022/11/18 08:15:57;;;;;;;1.20;0.85;;;;;;;4.02;97.15;101522.00;5101307;28;20040;-63
2022/11/18 08:18:23;;;;;;;3.03;1.52;;;;;;;3.68;98.00;101476.28;5111757;28;20031;-63
2022/11/18 08:20:48;;;;;;;2.72;1.13;;;;;;;3.95;98.16;101515.53;5099020;28;20027;-62
2022/11/18 08:23:15;;;;;;;2.10;1.00;;;;;;;4.00;98.06;101537.25;5089510;28;20407;-62
2022/11/18 08:25:42;;;;;;;1.17;0.75;;;;;;;4.05;98.11;101529.72;5087541;28;20485;-62
2022/11/18 08:28:08;;;;;;;1.98;0.77;;;;;;;4.27;96.79;101533.06;5100008;28;20475;-64
2022/11/18 08:30:34;;;;;;;2.03;0.95;;;;;;;4.28;96.00;101526.78;5111358;28;20036;-63
2022/11/18 08:33:00;;;;;;;1.67;0.80;;;;;;;4.33;95.82;101535.19;5099995;28;20035;-63
2022/11/18 08:35:27;;;;;;;1.40;0.60;;;;;;;4.50;95.07;101537.13;5105666;28;20036;-63
2022/11/18 08:37:52;;;;;;;1.73;0.90;;;;;;;4.52;95.18;101540.50;5107357;28;20031;-63
2022/11/18 08:40:18;;;;;;;1.30;0.77;;;;;;;4.57;93.72;101543.59;5080307;28;20039;-63
2022/11/18 08:42:43;;;;;;;1.83;0.80;;;;;;;4.68;93.96;101540.75;5110988;28;20495;-63
2022/11/18 08:45:09;;;;;;;1.27;0.70;;;;;;;4.51;93.14;101538.81;5083270;28;20024;-64
2022/11/18 08:47:35;;;;;;;1.00;0.57;;;;;;;4.54;93.61;101543.03;5104228;28;20062;-62
2022/11/18 08:50:07;;;;;;;4.18;0.80;;;;;;;4.65;92.52;101543.72;5089971;28;20450;-62
2022/11/18 08:52:33;;;;;;;3.78;0.93;;;;;;;4.81;91.84;101551.13;5097617;28;20046;-62
2022/11/18 08:54:58;;;;;;;2.25;0.88;;;;;;;4.75;91.45;101545.53;5110490;28;20483;-63
2022/11/18 08:57:24;;;;;;;2.22;0.80;;;;;;;4.86;91.46;101548.84;5084763;28;20032;-63
2022/11/18 08:59:49;;;;;;;1.38;0.70;;;;;;;4.88;90.49;101546.06;5102331;28;20043;-62
2022/11/18 09:02:17;;;;;;;1.73;0.55;;;;;;;5.06;89.85;101554.16;5109908;28;20055;-64
2022/11/18 09:04:42;;;;;;;2.65;0.80;;;;;;;4.84;90.28;101547.34;5079469;28;20028;-62
2022/11/18 09:07:08;;;;;;;1.52;0.60;;;;;;;4.89;89.20;101545.06;5089339;28;20043;-63
2022/11/18 09:09:33;;;;;;;1.08;0.55;;;;;;;4.85;88.76;101555.19;5104020;28;20035;-63
2022/11/18 09:11:59;;;;;;;1.38;0.60;;;;;;;5.04;88.20;101556.97;5082514;28;20402;-63
2022/11/18 09:14:24;;;;;;;2.85;0.50;;;;;;;4.89;89.24;101556.56;5092142;28;20509;-63
2022/11/18 09:16:50;;;;;;;0.95;0.40;;;;;;;4.88;87.97;101548.72;5093346;28;20065;-63
2022/11/18 09:19:16;;;;;;;1.15;0.60;;;;;;;5.10;87.44;101547.53;5082913;28;20062;-62
2022/11/18 09:21:41;;;;;;;2.78;0.70;;;;;;;4.88;86.93;101546.91;5103133;28;20050;-62
2022/11/18 09:24:09;;;;;;;1.67;0.60;;;;;;;5.10;85.57;101543.06;5097572;28;20036;-62
2022/11/18 09:26:35;;;;;;;1.02;0.50;;;;;;;4.98;85.24;101540.72;5095977;28;20024;-62
2022/11/18 09:29:00;;;;;;;1.95;0.73;;;;;;;5.10;84.47;101548.41;5097375;28;20038;-62
2022/11/18 09:31:26;;;;;;;1.02;0.47;;;;;;;5.22;82.97;101548.22;5102578;28;20043;-62
2022/11/18 09:33:52;;;;;;;0.90;0.60;;;;;;;5.26;81.86;101539.75;5103549;28;20516;-61
2022/11/18 09:36:20;;;;;;;1.67;0.52;;;;;;;5.45;81.30;101552.19;5094666;28;20032;-62
2022/11/18 09:38:46;;;;;;;1.98;0.68;;;;;;;5.31;81.08;101534.00;5107912;28;20031;-62
2022/11/18 09:41:36;;;;;;;0.80;0.40;;;;;;;5.71;80.20;101559.53;5097623;28;20031;-64
2022/11/18 09:44:21;;;;;;;1.75;0.50;;;;;;;5.60;78.70;101568.56;5097657;28;20032;-63
2022/11/18 09:47:05;;;;;;;;;;;;;;;5.62;77.63;101570.09;5108120;28;20487;-61
2022/11/18 09:49:30;;;;;;;1.02;0.60;;;;;;;5.63;78.60;101566.44;5100684;28;19913;-63
2022/11/18 09:51:56;;;;;;;0.65;0.40;;;;;;;5.46;77.23;101566.38;5079912;28;20036;-62
2022/11/18 09:54:30;;;;;;;1.80;0.60;;;;;;;5.53;77.16;101563.00;5107322;28;20039;-62
2022/11/18 09:56:56;;;;;;;1.60;0.50;;;;;;;5.47;77.00;101552.06;5080586;28;20509;-62
2022/11/18 09:59:24;;;;;;;2.38;0.60;;;;;;;5.66;75.96;101567.97;5085888;28;20059;-62
2022/11/18 10:01:51;;;;;;;2.08;0.60;;;;;;;5.53;75.44;101564.78;5104442;28;20038;-62
2022/11/18 10:04:19;;;;;;;1.10;0.45;;;;;;;5.46;73.89;101516.50;5096500;28;20082;-62
2022/11/18 10:06:46;;;;;;;1.60;0.50;;;;;;;5.87;74.93;101575.75;5108565;28;20487;-62
2022/11/18 10:09:32;;;;;;;0.90;0.77;;;;;;;5.79;73.67;101594.31;5098481;28;20046;-62
2022/11/18 10:12:21;;;;;;;1.83;0.70;;;;;;;5.80;73.60;101563.97;5080416;28;20093;-62
2022/11/18 10:15:01;;;;;;;1.75;0.60;;;;;;;5.70;73.52;101579.22;5107722;28;20020;-62
2022/11/18 10:17:43;;;;;;;0.95;0.47;;;;;;;5.73;74.26;101586.91;5100928;28;20071;-62
2022/11/18 10:20:28;;;;;;;1.52;0.65;;;;;;;5.81;74.15;101592.34;5079021;28;20032;-63
2022/11/18 10:23:06;;;;;;;2.50;0.60;;;;;;;5.90;74.60;101599.47;5080123;28;20032;-63
2022/11/18 10:25:32;;;;;;;1.42;0.60;;;;;;;5.84;74.24;101603.56;5072210;28;20517;-62
2022/11/18 10:28:14;;;;;;;1.13;0.50;;;;;;;5.75;74.63;101576.91;5080139;28;20180;-62
2022/11/18 10:30:39;;;;;;;1.10;0.43;;;;;;;5.65;75.63;101603.66;5108431;28;20501;-63
2022/11/18 10:33:20;;;;;;;1.45;0.57;;;;;;;5.96;74.05;101598.91;5078360;28;20124;-62
2022/11/18 10:35:45;;;;;;;1.77;0.63;;;;;;;5.95;74.75;101601.72;5100143;28;20034;-62
2022/11/18 10:38:14;;;;;;;2.40;0.70;;;;;;;5.95;74.71;101580.34;5087871;28;20566;-62
2022/11/18 10:40:45;;;;;;;1.88;0.60;;;;;;;6.16;74.14;101604.13;5077324;28;20486;-62
2022/11/18 10:43:31;;;;;;;3.20;0.57;;;;;;;5.95;74.58;101601.72;5106464;28;20452;-62
2022/11/18 10:46:16;;;;;;;2.47;0.70;;;;;;;6.11;75.11;101605.41;5086666;28;20041;-62
2022/11/18 10:48:41;;;;;;;1.23;0.60;;;;;;;5.99;74.93;101606.59;5072530;28;20075;-62
2022/11/18 10:51:21;;;;;;;4.50;0.82;;;;;;;6.09;74.20;101607.41;5067131;28;20148;-65
2022/11/18 10:53:47;;;;;;;1.27;0.63;;;;;;;6.04;73.74;101609.69;5081814;28;20098;-62
2022/11/18 10:56:17;;;;;;;1.75;0.60;;;;;;;5.82;73.88;101576.16;5074792;28;20037;-64
2022/11/18 10:58:47;;;;;;;7.78;0.82;;;;;;;6.23;73.12;101602.56;5087484;28;20067;-62
2022/11/18 11:01:18;;;;;;;1.20;0.70;;;;;;;6.28;72.51;101602.91;5076086;28;20031;-62
2022/11/18 11:03:59;;;;;;;3.25;0.60;;;;;;;6.51;72.36;101606.00;5078616;28;20051;-62
2022/11/18 11:06:30;;;;;;;1.50;0.45;;;;;;;6.16;72.42;101605.00;5088769;28;20031;-62
2022/11/18 11:09:04;;;;;;;1.42;0.50;;;;;;;6.01;72.06;101603.81;5043515;28;20042;-63
2022/11/18 11:12:11;;;;;;;2.55;0.57;;;;;;;6.01;71.40;101615.31;5084050;28;20056;-62
2022/11/18 11:14:59;;;;;;;1.67;0.55;;;;;;;6.39;71.34;101608.06;5089051;28;20046;-62
2022/11/18 11:17:33;;;;;;;0.55;0.30;;;;;;;6.23;70.50;101613.25;5081634;28;20032;-62
2022/11/18 11:20:22;;;;;;;1.73;0.47;;;;;;;6.17;68.83;101621.84;5094350;28;20460;-62
2022/11/18 11:22:48;;;;;;;2.63;0.57;;;;;;;6.52;68.88;101615.69;5094625;28;20027;-62
2022/11/18 11:25:22;;;;;;;4.65;0.70;;;;;;;6.20;68.11;101621.56;5100198;28;20080;-62
2022/11/18 11:28:12;;;;;;;1.17;0.50;;;;;;;6.30;68.17;101612.47;5096599;28;20031;-62
2022/11/18 11:31:16;;;;;;;1.88;0.70;;;;;;;6.32;67.51;101609.63;5098898;28;20135;-62
2022/11/18 11:33:54;;;;;;;2.35;0.50;;;;;;;6.35;67.60;101620.03;5075426;28;20480;-62
2022/11/18 11:36:40;;;;;;;3.47;0.75;;;;;;;6.58;67.76;101625.78;5111722;28;20101;-63
2022/11/18 11:39:43;;;;;;;2.25;0.40;;;;;;;6.73;67.10;101623.41;5086599;28;20098;-62
2022/11/18 11:42:30;;;;;;;1.42;0.63;;;;;;;6.38;67.98;101626.91;5109726;28;20084;-62
2022/11/18 11:45:06;;;;;;;0.70;0.40;;;;;;;6.45;67.52;101628.81;5084248;28;20028;-62
2022/11/18 11:47:46;;;;;;;1.80;0.60;;;;;;;6.60;67.27;101634.50;5106891;28;20031;-62
2022/11/18 11:50:21;;;;;;;3.30;0.52;;;;;;;6.63;66.91;101630.69;5115104;28;20083;-62
2022/11/18 11:53:28;;;;;;;4.13;0.70;;;;;;;6.67;65.41;101632.03;5085354;28;20450;-63
2022/11/18 11:56:11;;;;;;;1.73;0.60;;;;;;;6.61;66.19;101632.66;5090039;28;20036;-62
2022/11/18 11:58:39;;;;;;;1.77;0.50;;;;;;;6.67;66.82;101640.91;5098175;28;20486;-63
2022/11/18 12:01:43;;;;;;;2.40;0.50;;;;;;;7.02;65.44;101633.84;5105075;28;20393;-62